Time;durP1;ratioP1;P1;durP2;ratioP2;P2;SDS_P1;SDS_P2;PMS_P1;PMS_P2;Temp;Humidity;BMP_temperature;BMP_pressure;BME280_temperature;BME280_humidity;BME280_pressure;Samples;Min_cycle;Max_cycle;Signal;HPM_P1;HPM_P2
2021/03/19 00:01:59;;;;;;;11.97;3.47;;;;;;;3.22;80.80;102108.25;5095263;28;20032;-41
2021/03/19 00:04:25;;;;;;;7.05;2.70;;;;;;;3.17;81.36;102118.56;5095801;28;20345;-40
2021/03/19 00:06:51;;;;;;;8.10;3.47;;;;;;;3.15;81.07;102121.41;5094898;28;20034;-40
2021/03/19 00:09:16;;;;;;;7.67;3.50;;;;;;;3.16;81.68;102124.91;5095401;28;20027;-40
2021/03/19 00:11:42;;;;;;;10.03;3.57;;;;;;;3.11;81.47;102130.72;5094746;28;20031;-41
2021/03/19 00:14:09;;;;;;;8.07;3.67;;;;;;;3.06;81.19;102136.50;5094734;28;20107;-40
2021/03/19 00:16:35;;;;;;;11.30;3.78;;;;;;;3.01;82.07;102129.94;5094616;28;20040;-40
2021/03/19 00:19:01;;;;;;;9.97;3.93;;;;;;;2.98;81.66;102128.44;5095165;28;20084;-41
2021/03/19 00:21:27;;;;;;;8.98;4.22;;;;;;;3.00;81.99;102131.78;5094780;28;20165;-40
2021/03/19 00:23:53;;;;;;;6.85;3.38;;;;;;;3.02;81.85;102131.63;5095658;28;20471;-40
2021/03/19 00:26:18;;;;;;;9.87;3.43;;;;;;;2.96;81.79;102142.91;5095143;28;20085;-40
2021/03/19 00:28:44;;;;;;;8.43;3.35;;;;;;;2.96;82.28;102141.06;5095528;28;20483;-40
2021/03/19 00:31:09;;;;;;;8.37;3.70;;;;;;;2.94;82.17;102144.91;5095010;28;20024;-40
2021/03/19 00:33:34;;;;;;;10.70;3.67;;;;;;;2.90;82.40;102141.69;5094435;28;20024;-40
2021/03/19 00:36:00;;;;;;;9.13;3.97;;;;;;;2.90;82.05;102136.34;5094988;28;20020;-40
2021/03/19 00:38:25;;;;;;;9.27;3.73;;;;;;;2.87;82.09;102143.81;5094343;28;20028;-40
2021/03/19 00:40:51;;;;;;;8.70;3.83;;;;;;;2.81;82.62;102146.06;5094864;28;20067;-40
2021/03/19 00:43:17;;;;;;;9.30;3.33;;;;;;;2.80;82.45;102144.41;5094754;28;20106;-40
2021/03/19 00:45:43;;;;;;;10.50;4.00;;;;;;;2.79;82.18;102147.22;5094658;28;20032;-40
2021/03/19 00:48:09;;;;;;;;;;;;;;;2.84;81.87;102139.59;5094470;28;20035;-40
2021/03/19 00:50:42;;;;;;;7.80;3.60;;;;;;;2.76;82.65;102144.84;5094663;28;19911;-40
2021/03/19 00:53:08;;;;;;;8.35;3.60;;;;;;;2.71;82.65;102155.13;5092975;28;20479;-41
2021/03/19 00:55:34;;;;;;;8.25;3.53;;;;;;;2.68;82.56;102158.09;5094301;28;20055;-40
2021/03/19 00:58:00;;;;;;;7.23;4.00;;;;;;;2.60;82.43;102158.00;5094466;28;20413;-40
2021/03/19 01:00:29;;;;;;;6.57;3.47;;;;;;;2.62;82.99;102170.19;5094152;28;20285;-40
2021/03/19 01:02:54;;;;;;;7.03;4.20;;;;;;;2.58;82.92;102171.47;5094092;28;20030;-40
2021/03/19 01:05:23;;;;;;;7.37;4.03;;;;;;;2.56;83.02;102176.13;5094175;28;20103;-40
2021/03/19 01:07:50;;;;;;;9.02;3.85;;;;;;;2.50;82.70;102177.56;5093981;28;20032;-41
2021/03/19 01:10:18;;;;;;;;;;;;;;;2.49;83.01;102167.00;5093693;28;20499;-40
2021/03/19 01:12:43;;;;;;;5.88;3.83;;;;;;;2.42;83.30;102180.09;5094720;28;19915;-40
2021/03/19 01:15:10;;;;;;;10.83;4.03;;;;;;;2.38;83.15;102184.03;5092896;28;20040;-40
2021/03/19 01:17:35;;;;;;;;;;;;;;;2.39;83.46;102182.22;5094915;28;20044;-41
2021/03/19 01:20:04;;;;;;;5.85;4.20;;;;;;;2.38;83.22;102177.88;5094063;28;20053;-40
2021/03/19 01:22:29;;;;;;;5.68;3.50;;;;;;;2.38;83.45;102183.22;5093299;28;20039;-40
2021/03/19 01:24:54;;;;;;;5.37;3.90;;;;;;;2.35;83.32;102181.69;5094398;28;20031;-40
2021/03/19 01:27:20;;;;;;;5.93;3.57;;;;;;;2.40;83.14;102182.09;5094011;28;20565;-40
2021/03/19 01:29:45;;;;;;;8.73;3.87;;;;;;;2.37;82.87;102176.19;5093834;28;20052;-40
2021/03/19 01:32:10;;;;;;;8.90;3.97;;;;;;;2.38;83.14;102178.72;5093417;28;20103;-40
2021/03/19 01:34:36;;;;;;;8.43;4.20;;;;;;;2.31;83.21;102180.28;5094260;28;20364;-40
2021/03/19 01:37:01;;;;;;;5.77;3.93;;;;;;;2.28;82.84;102188.56;5093312;28;20032;-40
2021/03/19 01:39:26;;;;;;;8.07;4.30;;;;;;;2.26;82.50;102199.41;5094093;28;20028;-40
2021/03/19 01:41:55;;;;;;;9.33;3.83;;;;;;;2.14;82.85;102197.88;5094417;28;20273;-40
2021/03/19 01:44:32;;;;;;;7.10;3.75;;;;;;;2.13;83.54;102212.19;5094367;28;20031;-40
2021/03/19 01:47:35;;;;;;;7.13;4.07;;;;;;;2.14;83.39;102208.53;5094084;28;20028;-40
2021/03/19 01:50:37;;;;;;;5.88;3.65;;;;;;;2.11;82.98;102213.34;5093269;28;20048;-40
2021/03/19 01:53:40;;;;;;;8.85;4.20;;;;;;;2.08;83.10;102217.13;5094238;28;20107;-40
2021/03/19 01:56:43;;;;;;;6.90;3.85;;;;;;;2.05;82.81;102217.41;5093232;28;20464;-40
2021/03/19 01:59:45;;;;;;;4.95;3.38;;;;;;;2.04;82.96;102226.38;5096638;28;20110;-40
2021/03/19 02:02:47;;;;;;;5.72;3.60;;;;;;;2.08;82.97;102238.47;5097603;28;20028;-40
2021/03/19 02:05:50;;;;;;;6.45;3.40;;;;;;;2.13;82.71;102235.38;5097843;28;20032;-40
2021/03/19 02:08:53;;;;;;;7.00;3.88;;;;;;;2.09;82.89;102234.81;5097176;28;20024;-40
2021/03/19 02:11:55;;;;;;;5.82;3.80;;;;;;;2.04;82.57;102242.41;5097975;28;20032;-40
2021/03/19 02:14:58;;;;;;;5.68;3.90;;;;;;;1.94;82.67;102242.41;5097312;28;20035;-41
2021/03/19 02:18:00;;;;;;;6.72;3.60;;;;;;;1.88;83.20;102244.78;5097156;28;20503;-40
2021/03/19 02:21:03;;;;;;;5.40;4.03;;;;;;;1.77;83.18;102251.94;5096875;28;20103;-40
2021/03/19 02:24:05;;;;;;;6.38;4.47;;;;;;;1.66;83.31;102257.41;5097757;28;20032;-40
2021/03/19 02:27:08;;;;;;;7.85;4.60;;;;;;;1.65;84.06;102263.72;5097878;28;20032;-40
2021/03/19 02:30:10;;;;;;;6.20;4.68;;;;;;;1.62;83.79;102252.50;5097593;28;20028;-41
2021/03/19 02:32:36;;;;;;;7.10;5.28;;;;;;;1.58;83.76;102254.59;5096706;28;20032;-41
2021/03/19 02:35:09;;;;;;;7.83;5.13;;;;;;;1.54;84.51;102255.84;5096941;28;20028;-41
2021/03/19 02:37:37;;;;;;;9.60;5.53;;;;;;;1.50;84.24;102254.41;5096902;28;20494;-41
2021/03/19 02:40:11;;;;;;;8.65;5.53;;;;;;;1.51;84.51;102256.97;5096825;28;20031;-41
2021/03/19 02:42:37;;;;;;;11.32;5.57;;;;;;;1.51;84.79;102266.75;5096463;28;20025;-41
2021/03/19 02:45:04;;;;;;;6.83;5.07;;;;;;;1.48;84.48;102259.06;5097372;28;20027;-41
2021/03/19 02:47:29;;;;;;;8.88;5.50;;;;;;;1.51;84.31;102264.09;5096547;28;20277;-40
2021/03/19 02:49:55;;;;;;;8.90;5.90;;;;;;;1.48;84.75;102275.91;5096744;28;20410;-40
2021/03/19 02:52:22;;;;;;;8.75;5.28;;;;;;;1.44;84.97;102270.97;5096616;28;20035;-40
2021/03/19 02:54:48;;;;;;;9.18;5.93;;;;;;;1.41;84.85;102273.91;5097142;28;20059;-40
2021/03/19 02:57:15;;;;;;;9.77;5.72;;;;;;;1.50;85.12;102265.09;5096528;28;20361;-41
2021/03/19 02:59:40;;;;;;;9.07;6.18;;;;;;;1.37;84.67;102270.69;5097146;28;20032;-41
2021/03/19 03:02:06;;;;;;;9.07;6.50;;;;;;;1.38;84.81;102274.19;5096448;28;20437;-41
2021/03/19 03:04:31;;;;;;;11.13;6.53;;;;;;;1.31;84.84;102273.03;5097202;28;20040;-41
2021/03/19 03:06:58;;;;;;;10.63;6.20;;;;;;;1.30;85.01;102269.53;5097172;28;20685;-41
2021/03/19 03:09:41;;;;;;;7.88;6.50;;;;;;;1.27;85.79;102273.31;5096160;28;20170;-41
2021/03/19 03:12:07;;;;;;;10.35;6.40;;;;;;;1.25;85.33;102277.91;5095501;28;20035;-40
2021/03/19 03:14:32;;;;;;;7.75;5.97;;;;;;;1.19;85.38;102273.13;5095963;28;20016;-40
2021/03/19 03:17:04;;;;;;;9.07;6.57;;;;;;;1.22;85.60;102294.19;5096179;28;20479;-40
2021/03/19 03:19:30;;;;;;;8.73;6.38;;;;;;;1.20;85.78;102293.47;5096851;28;20028;-41
2021/03/19 03:21:56;;;;;;;10.98;7.30;;;;;;;1.15;85.24;102290.38;5096319;28;20039;-40
2021/03/19 03:24:22;;;;;;;;;;;;;;;1.22;85.15;102286.19;5096749;28;20020;-40
2021/03/19 03:26:48;;;;;;;9.15;6.60;;;;;;;1.18;85.59;102289.28;5094998;28;20030;-40
2021/03/19 03:29:13;;;;;;;13.10;8.38;;;;;;;1.15;85.47;102278.88;5096205;28;20039;-40
2021/03/19 03:31:40;;;;;;;9.30;7.15;;;;;;;1.09;85.15;102284.75;5095559;28;20027;-40
2021/03/19 03:34:06;;;;;;;10.38;7.30;;;;;;;1.08;85.77;102291.88;5095765;28;20376;-40
2021/03/19 03:36:33;;;;;;;9.38;7.47;;;;;;;1.15;85.28;102301.03;5096117;28;20028;-40
2021/03/19 03:38:59;;;;;;;11.57;7.43;;;;;;;1.12;85.10;102292.44;5095899;28;20062;-40
2021/03/19 03:41:27;;;;;;;9.68;7.72;;;;;;;1.16;85.44;102305.38;5095719;28;20056;-40
2021/03/19 03:43:52;;;;;;;10.93;7.50;;;;;;;1.10;84.68;102297.91;5096145;28;20032;-40
2021/03/19 03:46:22;;;;;;;12.52;7.30;;;;;;;1.10;84.92;102302.41;5095408;28;20490;-40
2021/03/19 03:48:47;;;;;;;8.60;6.97;;;;;;;1.12;85.17;102305.78;5095390;28;20043;-40
2021/03/19 03:51:13;;;;;;;10.57;7.33;;;;;;;1.13;85.33;102307.47;5094517;28;20052;-41
2021/03/19 03:53:40;;;;;;;8.77;7.50;;;;;;;1.06;85.69;102307.16;5094435;28;20035;-41
2021/03/19 03:56:08;;;;;;;10.77;6.95;;;;;;;1.02;85.35;102300.41;5095401;28;20024;-41
2021/03/19 03:58:34;;;;;;;12.98;8.10;;;;;;;1.00;85.26;102311.19;5094214;28;20065;-40
2021/03/19 04:01:00;;;;;;;9.70;7.73;;;;;;;1.01;85.23;102306.69;5095083;28;20036;-41
2021/03/19 04:03:25;;;;;;;14.07;8.40;;;;;;;1.05;85.77;102307.28;5095281;28;20408;-40
2021/03/19 04:05:51;;;;;;;10.57;7.97;;;;;;;0.94;84.85;102318.88;5095507;28;20107;-40
2021/03/19 04:08:19;;;;;;;10.07;7.87;;;;;;;0.97;85.39;102321.25;5094805;28;20050;-40
2021/03/19 04:10:46;;;;;;;10.25;7.82;;;;;;;0.96;85.22;102316.91;5095792;28;20031;-40
2021/03/19 04:13:12;;;;;;;10.48;7.65;;;;;;;0.98;85.56;102321.16;5095271;28;20024;-40
2021/03/19 04:15:39;;;;;;;15.00;9.10;;;;;;;1.00;85.40;102327.19;5095067;28;20024;-40
2021/03/19 04:18:08;;;;;;;10.25;7.63;;;;;;;0.95;85.05;102326.72;5094554;28;20075;-40
2021/03/19 04:20:34;;;;;;;10.95;8.10;;;;;;;0.96;85.57;102335.56;5095695;28;20427;-41
2021/03/19 04:23:00;;;;;;;9.90;8.10;;;;;;;0.90;84.79;102341.41;5093885;28;20039;-40
2021/03/19 04:25:26;;;;;;;8.93;7.45;;;;;;;0.91;85.28;102338.63;5094907;28;20032;-40
2021/03/19 04:27:57;;;;;;;11.43;7.70;;;;;;;0.92;84.94;102345.63;5094836;28;20077;-40
2021/03/19 04:30:28;;;;;;;9.25;7.47;;;;;;;0.97;85.02;102347.91;5095334;28;20074;-40
2021/03/19 04:32:54;;;;;;;7.97;6.93;;;;;;;0.93;84.76;102347.34;5094729;28;20032;-40
2021/03/19 04:35:24;;;;;;;10.38;7.70;;;;;;;0.90;85.44;102349.41;5095468;28;20477;-40
2021/03/19 04:37:53;;;;;;;9.82;7.63;;;;;;;0.93;84.97;102357.16;5095349;28;20085;-41
2021/03/19 04:40:19;;;;;;;12.48;8.55;;;;;;;0.90;84.58;102354.75;5095073;28;20028;-41
2021/03/19 04:42:46;;;;;;;9.95;7.53;;;;;;;0.92;84.81;102366.09;5094448;28;20389;-41
2021/03/19 04:45:12;;;;;;;10.95;7.07;;;;;;;0.85;84.92;102370.28;5095038;28;20064;-41
2021/03/19 04:47:37;;;;;;;10.98;7.97;;;;;;;0.86;84.98;102372.78;5094079;28;20028;-42
2021/03/19 04:50:06;;;;;;;11.93;7.10;;;;;;;0.80;85.37;102373.31;5094917;28;20024;-41
2021/03/19 04:52:31;;;;;;;10.40;7.28;;;;;;;0.84;85.50;102380.09;5094293;28;20020;-42
2021/03/19 04:55:00;;;;;;;9.40;6.60;;;;;;;0.87;85.45;102376.28;5094659;28;20031;-42
2021/03/19 04:57:26;;;;;;;9.73;7.03;;;;;;;0.84;85.18;102380.09;5094475;28;20176;-41
2021/03/19 04:59:51;;;;;;;8.77;7.00;;;;;;;0.79;84.92;102376.13;5094978;28;20119;-41
2021/03/19 05:02:16;;;;;;;11.50;8.30;;;;;;;0.73;85.46;102375.66;5094435;28;20031;-40
2021/03/19 05:04:42;;;;;;;9.50;7.13;;;;;;;0.75;85.04;102386.19;5094419;28;20031;-42
2021/03/19 05:07:08;;;;;;;12.97;7.40;;;;;;;0.72;84.94;102400.59;5094054;28;20038;-40
2021/03/19 05:09:33;;;;;;;;;;;;;;;0.75;84.61;102413.66;5095074;28;20038;-41
2021/03/19 05:12:00;;;;;;;10.35;7.50;;;;;;;0.57;85.30;102409.00;5094006;28;19995;-41
2021/03/19 05:14:26;;;;;;;11.20;8.00;;;;;;;0.56;85.23;102413.50;5094464;28;20419;-41
2021/03/19 05:16:51;;;;;;;9.90;7.43;;;;;;;0.51;85.48;102421.00;5093787;28;20052;-42
2021/03/19 05:19:18;;;;;;;10.43;7.47;;;;;;;0.51;84.83;102418.34;5093886;28;20031;-40
2021/03/19 05:21:43;;;;;;;10.38;7.25;;;;;;;0.54;85.44;102420.78;5093821;28;20028;-40
2021/03/19 05:24:10;;;;;;;10.63;7.50;;;;;;;0.51;85.77;102419.19;5093499;28;20039;-41
2021/03/19 05:26:35;;;;;;;11.55;6.95;;;;;;;0.57;85.24;102420.50;5093565;28;20031;-41
2021/03/19 05:29:01;;;;;;;10.43;7.10;;;;;;;0.57;85.69;102420.50;5094103;28;20487;-40
2021/03/19 05:31:26;;;;;;;9.33;7.40;;;;;;;0.58;85.78;102422.19;5093795;28;20062;-41
2021/03/19 05:33:54;;;;;;;8.40;6.60;;;;;;;0.55;85.68;102417.13;5093723;28;20026;-41
2021/03/19 05:36:26;;;;;;;8.15;6.43;;;;;;;0.52;85.32;102425.34;5094288;28;20261;-41
2021/03/19 05:38:52;;;;;;;9.15;6.38;;;;;;;0.50;85.31;102427.31;5093587;28;20089;-41
2021/03/19 05:41:20;;;;;;;10.88;7.57;;;;;;;0.51;85.07;102434.31;5093917;28;20128;-41
2021/03/19 05:44:12;;;;;;;10.82;6.72;;;;;;;0.48;85.13;102427.41;5093592;28;20046;-41
2021/03/19 05:47:02;;;;;;;10.20;7.28;;;;;;;0.50;85.37;102448.63;5093862;28;20028;-41
2021/03/19 05:49:31;;;;;;;9.52;6.75;;;;;;;0.48;84.83;102443.38;5093265;28;20107;-41
2021/03/19 05:51:59;;;;;;;9.82;7.28;;;;;;;0.43;84.85;102458.88;5093263;28;20414;-40
2021/03/19 05:54:36;;;;;;;10.55;6.88;;;;;;;0.47;84.99;102455.00;5094066;28;20107;-40
2021/03/19 05:57:04;;;;;;;11.65;7.20;;;;;;;0.46;84.59;102455.16;5093107;28;20048;-40
2021/03/19 05:59:33;;;;;;;11.40;6.95;;;;;;;0.41;85.09;102465.34;5093408;28;20502;-40
2021/03/19 06:01:58;;;;;;;9.73;7.05;;;;;;;0.46;84.73;102463.13;5093466;28;20036;-41
2021/03/19 06:04:27;;;;;;;11.07;7.18;;;;;;;0.46;84.40;102468.47;5093719;28;20377;-41
2021/03/19 06:06:52;;;;;;;7.82;6.20;;;;;;;0.45;84.75;102464.97;5093080;28;20350;-41
2021/03/19 06:09:22;;;;;;;10.47;6.93;;;;;;;0.51;84.83;102468.94;5093673;28;20044;-42
2021/03/19 06:11:50;;;;;;;9.90;7.00;;;;;;;0.52;84.51;102481.25;5093168;28;20058;-42
2021/03/19 06:14:17;;;;;;;11.00;7.03;;;;;;;0.53;84.65;102469.63;5093440;28;20035;-41
2021/03/19 06:16:52;;;;;;;8.93;6.68;;;;;;;0.59;84.66;102477.16;5093247;28;20051;-42
2021/03/19 06:19:51;;;;;;;9.43;6.72;;;;;;;0.64;83.79;102482.09;5093478;28;20111;-41
2021/03/19 06:22:43;;;;;;;9.75;6.55;;;;;;;0.62;84.22;102476.03;5093245;28;20035;-41
2021/03/19 06:25:31;;;;;;;8.60;6.35;;;;;;;0.65;84.06;102479.28;5070787;28;20040;-41
2021/03/19 06:28:04;;;;;;;9.70;6.10;;;;;;;0.64;83.56;102482.09;5070646;28;20043;-41
2021/03/19 06:30:37;;;;;;;9.90;6.38;;;;;;;0.69;84.08;102474.56;5070779;28;20040;-41
2021/03/19 06:33:26;;;;;;;9.48;6.05;;;;;;;0.74;83.24;102475.03;5071367;28;20043;-41
2021/03/19 06:36:12;;;;;;;9.73;5.72;;;;;;;0.80;83.13;102476.34;5070714;28;20051;-41
2021/03/19 06:38:42;;;;;;;7.97;5.32;;;;;;;0.70;82.48;102479.75;5054570;28;20522;-41
2021/03/19 06:41:16;;;;;;;11.98;6.25;;;;;;;0.76;82.66;102481.91;5071045;28;20056;-41
2021/03/19 06:43:42;;;;;;;11.98;6.22;;;;;;;0.73;81.98;102499.94;5054248;28;20087;-41
2021/03/19 06:46:25;;;;;;;10.23;5.45;;;;;;;0.80;82.97;102490.50;5073426;28;20485;-41
2021/03/19 06:48:53;;;;;;;11.00;6.10;;;;;;;0.92;82.30;102493.94;5074861;28;20431;-41
2021/03/19 06:51:31;;;;;;;7.60;5.32;;;;;;;1.06;82.69;102506.97;5074323;28;20115;-41
2021/03/19 06:54:05;;;;;;;10.70;5.95;;;;;;;1.14;82.02;102503.69;5074004;28;20043;-41
2021/03/19 06:56:31;;;;;;;7.20;5.25;;;;;;;1.22;81.03;102506.50;5074382;28;20047;-41
2021/03/19 06:58:57;;;;;;;10.52;5.18;;;;;;;1.23;80.68;102508.22;5074027;28;20028;-40
2021/03/19 07:01:22;;;;;;;11.15;4.68;;;;;;;1.18;79.98;102513.09;5080366;28;20126;-41
2021/03/19 07:03:57;;;;;;;10.57;5.30;;;;;;;1.29;81.11;102526.38;5096302;28;20106;-41
2021/03/19 07:06:34;;;;;;;8.75;4.53;;;;;;;1.35;80.27;102528.50;5096827;28;20024;-40
2021/03/19 07:09:36;;;;;;;6.40;4.35;;;;;;;1.44;80.35;102532.22;5096504;28;20024;-40
2021/03/19 07:12:13;;;;;;;6.90;4.50;;;;;;;1.48;79.12;102529.16;5096830;28;20062;-41
2021/03/19 07:14:53;;;;;;;8.07;4.32;;;;;;;1.54;78.03;102533.13;5096661;28;20036;-40
2021/03/19 07:17:25;;;;;;;7.35;3.92;;;;;;;1.62;77.20;102530.66;5096231;28;20538;-41
2021/03/19 07:20:22;;;;;;;7.38;4.05;;;;;;;1.67;77.04;102531.13;5096609;28;20032;-40
2021/03/19 07:23:06;;;;;;;6.43;3.63;;;;;;;1.76;77.36;102538.31;5096925;28;20020;-41
2021/03/19 07:25:45;;;;;;;6.78;3.20;;;;;;;1.78;76.09;102541.69;5095951;28;20038;-41
2021/03/19 07:28:50;;;;;;;6.57;3.70;;;;;;;1.87;75.63;102549.88;5096494;28;20032;-41
2021/03/19 07:31:43;;;;;;;5.95;3.47;;;;;;;1.93;75.69;102547.53;5096654;28;20020;-41
2021/03/19 07:34:32;;;;;;;4.88;2.90;;;;;;;2.03;74.69;102552.91;5096160;28;20020;-41
2021/03/19 07:37:18;;;;;;;4.57;2.83;;;;;;;2.13;74.35;102551.13;5093218;28;20032;-40
2021/03/19 07:40:45;;;;;;;7.10;3.67;;;;;;;2.22;74.49;102558.34;5095756;28;20032;-40
2021/03/19 07:43:31;;;;;;;5.45;3.10;;;;;;;2.30;74.46;102568.34;5055849;28;20086;-41
2021/03/19 07:46:05;;;;;;;6.18;3.00;;;;;;;2.30;73.10;102569.19;5072803;28;20040;-41
2021/03/19 07:49:09;;;;;;;7.22;3.10;;;;;;;2.39;72.47;102572.00;5073309;28;20182;-40
2021/03/19 07:51:40;;;;;;;7.57;3.13;;;;;;;2.44;73.35;102580.47;5072837;28;20075;-40
2021/03/19 07:54:18;;;;;;;5.07;3.17;;;;;;;2.43;72.33;102573.44;5073309;28;20032;-40
2021/03/19 07:56:49;;;;;;;5.45;3.35;;;;;;;2.56;73.45;102579.41;5073414;28;20044;-40
2021/03/19 07:59:30;;;;;;;5.38;2.90;;;;;;;2.58;71.92;102572.06;5073042;28;20041;-40
2021/03/19 08:02:14;;;;;;;6.28;3.35;;;;;;;2.61;71.31;102577.16;5072775;28;20075;-40
2021/03/19 08:04:44;;;;;;;6.70;2.92;;;;;;;2.73;71.89;102577.88;5056661;28;20425;-40
2021/03/19 08:07:33;;;;;;;6.68;3.08;;;;;;;2.79;70.24;102580.88;5073397;28;20427;-40
2021/03/19 08:10:09;;;;;;;6.07;2.90;;;;;;;2.92;71.05;102577.06;5072656;28;20047;-40
2021/03/19 08:12:43;;;;;;;5.93;3.45;;;;;;;2.96;70.30;102573.16;5072811;28;20497;-40
2021/03/19 08:15:26;;;;;;;5.50;2.88;;;;;;;2.99;69.20;102579.06;5072493;28;20040;-40
2021/03/19 08:18:02;;;;;;;5.13;2.90;;;;;;;3.20;70.74;102591.47;5079736;28;20444;-40
2021/03/19 08:20:59;;;;;;;5.95;2.92;;;;;;;3.25;68.91;102592.72;5095504;28;20032;-40
2021/03/19 08:23:42;;;;;;;4.15;2.63;;;;;;;3.36;69.17;102597.09;5094919;28;20027;-40
2021/03/19 08:26:17;;;;;;;5.45;2.97;;;;;;;3.47;68.14;102591.63;5095433;28;20035;-41
2021/03/19 08:28:58;;;;;;;4.85;2.97;;;;;;;3.51;67.84;102597.50;5094789;28;20039;-41
2021/03/19 08:31:49;;;;;;;4.60;2.72;;;;;;;3.66;67.73;102603.25;5094818;28;20107;-40
2021/03/19 08:34:30;;;;;;;4.35;2.70;;;;;;;3.66;68.12;102600.59;5094459;28;20077;-40
2021/03/19 08:36:56;;;;;;;6.05;2.30;;;;;;;3.70;66.99;102602.00;5094627;28;20090;-40
2021/03/19 08:39:41;;;;;;;4.37;3.03;;;;;;;3.81;67.89;102604.53;5094547;28;20028;-41
2021/03/19 08:42:23;;;;;;;5.13;2.67;;;;;;;3.90;68.13;102610.84;5094322;28;20043;-40
2021/03/19 08:44:49;;;;;;;4.65;2.63;;;;;;;3.82;64.14;102611.56;5094586;28;20028;-41
2021/03/19 08:47:32;;;;;;;7.60;2.40;;;;;;;3.85;63.72;102614.78;5094192;28;20097;-41
2021/03/19 08:49:59;;;;;;;3.10;2.30;;;;;;;3.90;64.12;102625.06;5095300;28;20043;-40
2021/03/19 08:52:41;;;;;;;4.55;2.55;;;;;;;3.99;63.13;102634.06;5094447;28;20031;-40
2021/03/19 08:55:12;;;;;;;3.28;1.90;;;;;;;4.10;63.43;102621.38;5094670;28;20031;-40
2021/03/19 08:57:43;;;;;;;3.63;2.40;;;;;;;4.24;64.31;102628.06;5094260;28;20110;-40
2021/03/19 09:00:21;;;;;;;6.60;2.00;;;;;;;4.32;63.23;102622.84;5094356;28;20028;-40
2021/03/19 09:03:02;;;;;;;4.63;1.98;;;;;;;4.37;64.02;102631.28;5094491;28;20059;-41
2021/03/19 09:05:35;;;;;;;4.53;1.95;;;;;;;4.54;62.37;102634.16;5094807;28;20113;-40
2021/03/19 09:08:14;;;;;;;4.28;2.03;;;;;;;4.63;62.17;102631.44;5093925;28;20107;-41
2021/03/19 09:10:40;;;;;;;3.67;2.17;;;;;;;4.66;60.50;102630.31;5094406;28;20024;-40
2021/03/19 09:13:10;;;;;;;4.00;2.40;;;;;;;4.69;60.76;102640.75;5093983;28;20036;-40
2021/03/19 09:15:38;;;;;;;4.22;2.67;;;;;;;4.78;60.13;102647.91;5093939;28;20024;-40
2021/03/19 09:18:38;;;;;;;3.58;2.13;;;;;;;4.89;60.32;102644.16;5093768;28;20036;-40
2021/03/19 09:21:11;;;;;;;3.10;1.95;;;;;;;4.99;58.79;102654.84;5093964;28;20043;-41
2021/03/19 09:23:57;;;;;;;4.00;2.10;;;;;;;4.90;58.39;102653.91;5094145;28;20032;-40
2021/03/19 09:26:53;;;;;;;3.20;1.85;;;;;;;4.93;59.24;102647.38;5094635;28;20089;-40
2021/03/19 09:29:18;;;;;;;3.45;1.88;;;;;;;5.05;59.53;102648.88;5094327;28;20103;-41
2021/03/19 09:31:56;;;;;;;5.53;2.27;;;;;;;5.17;59.05;102647.66;5094370;28;20062;-40
2021/03/19 09:34:41;;;;;;;4.13;1.90;;;;;;;5.19;56.25;102651.03;5093830;28;20020;-40
2021/03/19 09:37:31;;;;;;;6.22;2.30;;;;;;;5.27;58.09;102651.13;5093841;28;20052;-40
2021/03/19 09:40:09;;;;;;;5.60;2.10;;;;;;;5.47;58.98;102653.69;5094102;28;20108;-40
2021/03/19 09:42:39;;;;;;;3.35;1.65;;;;;;;5.54;58.32;102657.41;5094348;28;20415;-40
2021/03/19 09:45:11;;;;;;;5.25;2.22;;;;;;;5.64;57.23;102664.38;5093293;28;20031;-40
2021/03/19 09:47:47;;;;;;;5.18;2.15;;;;;;;5.71;57.89;102664.63;5093258;28;20074;-40
2021/03/19 09:50:24;;;;;;;4.03;1.85;;;;;;;5.73;57.08;102664.47;5093575;28;20035;-41
2021/03/19 09:53:05;;;;;;;3.00;1.80;;;;;;;5.66;55.83;102658.84;5093719;28;20060;-40
2021/03/19 09:55:56;;;;;;;3.50;1.88;;;;;;;5.69;54.95;102659.41;5094219;28;20053;-40
2021/03/19 09:58:43;;;;;;;2.65;1.40;;;;;;;5.65;53.79;102657.16;5071165;28;20037;-40
2021/03/19 10:01:14;;;;;;;;;;;;;;;5.72;52.87;102671.69;5071097;28;20035;-40
2021/03/19 10:04:03;;;;;;;2.10;1.38;;;;;;;5.84;56.07;102670.44;5070868;28;19913;-40
2021/03/19 10:06:34;;;;;;;5.68;1.60;;;;;;;6.02;54.23;102669.59;5070784;28;20029;-40
2021/03/19 10:09:10;;;;;;;3.35;1.35;;;;;;;6.23;54.62;102666.56;5071400;28;20045;-40
2021/03/19 10:11:54;;;;;;;4.43;1.52;;;;;;;6.36;54.81;102678.56;5070753;28;20115;-40
2021/03/19 10:14:40;;;;;;;2.40;1.30;;;;;;;6.35;52.76;102668.81;5071033;28;20029;-40
2021/03/19 10:17:08;;;;;;;2.10;1.30;;;;;;;6.41;53.06;102678.94;5070616;28;20595;-40
2021/03/19 10:19:39;;;;;;;5.25;1.52;;;;;;;6.48;52.75;102675.59;5070574;28;20025;-40
2021/03/19 10:22:06;;;;;;;2.42;1.27;;;;;;;6.63;52.54;102669.47;5074789;28;20090;-40
2021/03/19 10:24:32;;;;;;;2.13;1.40;;;;;;;6.48;52.54;102680.97;5074971;28;20040;-40
2021/03/19 10:27:13;;;;;;;3.23;1.80;;;;;;;6.40;52.06;102681.78;5074438;28;20481;-40
2021/03/19 10:29:44;;;;;;;3.58;1.60;;;;;;;6.39;51.16;102677.41;5075097;28;20263;-40
2021/03/19 10:32:16;;;;;;;2.80;1.40;;;;;;;6.52;52.15;102680.50;5075208;28;20085;-41
2021/03/19 10:34:59;;;;;;;5.47;1.50;;;;;;;6.53;51.71;102684.03;5079833;28;20051;-41
2021/03/19 10:37:33;;;;;;;4.03;1.48;;;;;;;6.50;51.96;102679.84;5097224;28;20346;-40
2021/03/19 10:40:07;;;;;;;2.83;1.42;;;;;;;6.70;52.41;102677.75;5096993;28;20040;-40
2021/03/19 10:42:48;;;;;;;3.30;1.58;;;;;;;6.76;51.57;102674.41;5096916;28;20111;-40
2021/03/19 10:45:28;;;;;;;2.17;1.60;;;;;;;6.99;51.46;102680.06;5097142;28;20081;-41
2021/03/19 10:47:58;;;;;;;2.88;1.50;;;;;;;7.03;50.34;102677.88;5097326;28;20121;-41
2021/03/19 10:50:38;;;;;;;3.03;1.60;;;;;;;7.09;50.40;102688.84;5097041;28;20039;-41
2021/03/19 10:53:16;;;;;;;2.90;1.40;;;;;;;7.02;50.75;102690.47;5096681;28;20020;-41
2021/03/19 10:55:45;;;;;;;3.15;1.40;;;;;;;7.10;49.96;102695.06;5097202;28;20028;-41
2021/03/19 10:58:20;;;;;;;2.85;1.45;;;;;;;7.13;50.05;102692.88;5096717;28;20452;-41
2021/03/19 11:00:47;;;;;;;2.45;1.50;;;;;;;7.29;50.50;102691.25;5096969;28;20031;-42
2021/03/19 11:03:31;;;;;;;3.50;1.52;;;;;;;7.38;50.96;102712.63;5096816;28;20032;-41
2021/03/19 11:06:08;;;;;;;2.65;1.60;;;;;;;7.40;48.38;102704.38;5095930;28;20036;-41
2021/03/19 11:08:35;;;;;;;2.83;1.30;;;;;;;7.34;48.70;102703.19;5096317;28;20032;-40
2021/03/19 11:11:00;;;;;;;4.25;1.77;;;;;;;7.51;49.29;102690.59;5095342;28;20036;-41
2021/03/19 11:13:29;;;;;;;4.70;1.70;;;;;;;7.42;46.26;102694.31;5096510;28;20028;-40
2021/03/19 11:16:25;;;;;;;2.90;1.45;;;;;;;7.55;49.17;102691.13;5096768;28;20028;-40
2021/03/19 11:19:03;;;;;;;3.83;1.80;;;;;;;7.53;48.39;102687.78;5095946;28;20059;-41
2021/03/19 11:21:31;;;;;;;4.68;2.08;;;;;;;7.62;48.73;102689.47;5096449;28;20516;-40
2021/03/19 11:24:23;;;;;;;2.47;1.60;;;;;;;7.84;49.50;102691.50;5095974;28;20035;-40
2021/03/19 11:27:23;;;;;;;2.78;1.30;;;;;;;7.85;46.37;102692.31;5096601;28;20028;-40
2021/03/19 11:29:51;;;;;;;2.80;1.48;;;;;;;7.44;46.11;102694.97;5073577;28;20472;-40
2021/03/19 11:32:17;;;;;;;3.20;1.75;;;;;;;7.50;47.01;102688.94;5073328;28;20127;-40
2021/03/19 11:34:46;;;;;;;2.97;1.35;;;;;;;7.64;48.67;102687.44;5073694;28;20052;-41
2021/03/19 11:37:21;;;;;;;3.72;1.50;;;;;;;7.86;48.50;102697.56;5073091;28;20036;-40
2021/03/19 11:39:49;;;;;;;2.85;1.30;;;;;;;7.89;46.76;102689.13;5073432;28;20040;-40
2021/03/19 11:42:16;;;;;;;3.70;1.80;;;;;;;8.06;48.10;102689.16;5073034;28;20056;-40
2021/03/19 11:44:44;;;;;;;4.30;1.73;;;;;;;8.06;45.66;102694.53;5073101;28;20032;-41
2021/03/19 11:47:25;;;;;;;4.40;1.92;;;;;;;8.07;47.13;102685.44;5073095;28;20056;-41
2021/03/19 11:49:57;;;;;;;3.03;1.70;;;;;;;8.17;47.26;102686.09;5073496;28;20435;-41
2021/03/19 11:52:22;;;;;;;3.22;1.60;;;;;;;8.43;48.62;102692.13;5073555;28;20037;-41
2021/03/19 11:54:47;;;;;;;4.87;1.73;;;;;;;8.21;46.95;102687.44;5073193;28;20127;-41
2021/03/19 11:57:14;;;;;;;4.40;2.53;;;;;;;7.93;45.87;102679.72;5073094;28;20024;-40
2021/03/19 11:59:39;;;;;;;;;;;;;;;8.25;49.96;102678.00;5073362;28;20439;-41
2021/03/19 12:02:34;;;;;;;2.53;1.60;;;;;;;8.35;47.34;102694.00;5073283;28;19913;-41
2021/03/19 12:04:59;;;;;;;3.70;1.80;;;;;;;8.27;46.50;102684.91;5073475;28;20404;-41
2021/03/19 12:07:24;;;;;;;2.23;1.33;;;;;;;8.49;46.33;102679.81;5092015;28;20043;-41